sensor_id;sensor_type;location;lat;lon;timestamp;pressure;altitude;pressure_sealevel;temperature;humidity
62025;BME280;47978;49.118;12.146;2023-03-26T00:03:56;96854.84;;;7.29;82.01
62025;BME280;47978;49.118;12.146;2023-03-26T00:07:57;96860.84;;;7.31;81.22
62025;BME280;47978;49.118;12.146;2023-03-26T00:11:58;96860.63;;;7.28;81.42
62025;BME280;47978;49.118;12.146;2023-03-26T00:16:01;96868.59;;;7.29;81.44
62025;BME280;47978;49.118;12.146;2023-03-26T00:20:03;96875.81;;;7.25;80.94
62025;BME280;47978;49.118;12.146;2023-03-26T00:24:05;96877.66;;;7.30;80.98
62025;BME280;47978;49.118;12.146;2023-03-26T00:28:08;96879.81;;;7.33;80.82
62025;BME280;47978;49.118;12.146;2023-03-26T00:32:10;96892.34;;;7.39;80.41
62025;BME280;47978;49.118;12.146;2023-03-26T00:36:13;96887.66;;;7.39;80.33
62025;BME280;47978;49.118;12.146;2023-03-26T00:40:15;96887.66;;;7.39;79.50
62025;BME280;47978;49.118;12.146;2023-03-26T00:44:16;96884.63;;;7.41;79.81
62025;BME280;47978;49.118;12.146;2023-03-26T00:48:19;96883.91;;;7.35;79.79
62025;BME280;47978;49.118;12.146;2023-03-26T00:52:31;96881.34;;;7.39;78.99
62025;BME280;47978;49.118;12.146;2023-03-26T00:56:33;96887.91;;;7.43;78.79
62025;BME280;47978;49.118;12.146;2023-03-26T01:00:35;96881.88;;;7.41;78.07
62025;BME280;47978;49.118;12.146;2023-03-26T01:04:38;96892.56;;;7.42;78.32
62025;BME280;47978;49.118;12.146;2023-03-26T01:08:41;96883.94;;;7.49;78.48
62025;BME280;47978;49.118;12.146;2023-03-26T01:12:42;96885.78;;;7.54;76.78
62025;BME280;47978;49.118;12.146;2023-03-26T01:16:46;96883.03;;;7.54;76.86
62025;BME280;47978;49.118;12.146;2023-03-26T01:20:50;96886.81;;;7.58;76.44
62025;BME280;47978;49.118;12.146;2023-03-26T01:24:53;96875.75;;;7.63;76.96
62025;BME280;47978;49.118;12.146;2023-03-26T01:28:55;96877.03;;;7.52;76.38
62025;BME280;47978;49.118;12.146;2023-03-26T01:32:57;96877.97;;;7.61;76.69
62025;BME280;47978;49.118;12.146;2023-03-26T01:37:04;96870.31;;;7.58;76.90
62025;BME280;47978;49.118;12.146;2023-03-26T01:41:10;96878.78;;;7.61;76.22
62025;BME280;47978;49.118;12.146;2023-03-26T01:45:14;96872.66;;;7.64;76.02
62025;BME280;47978;49.118;12.146;2023-03-26T01:49:16;96867.78;;;7.61;75.99
62025;BME280;47978;49.118;12.146;2023-03-26T01:53:18;96862.59;;;7.60;75.64
62025;BME280;47978;49.118;12.146;2023-03-26T01:57:23;96875.00;;;7.57;75.87
62025;BME280;47978;49.118;12.146;2023-03-26T02:01:31;96868.78;;;7.52;76.08
62025;BME280;47978;49.118;12.146;2023-03-26T02:05:37;96860.59;;;7.47;76.08
62025;BME280;47978;49.118;12.146;2023-03-26T02:09:44;96855.28;;;7.36;76.76
62025;BME280;47978;49.118;12.146;2023-03-26T02:13:48;96859.44;;;7.34;76.68
62025;BME280;47978;49.118;12.146;2023-03-26T02:17:50;96853.19;;;7.28;77.13
62025;BME280;47978;49.118;12.146;2023-03-26T02:21:52;96849.03;;;7.31;77.48
62025;BME280;47978;49.118;12.146;2023-03-26T02:25:53;96851.19;;;7.34;77.42
62025;BME280;47978;49.118;12.146;2023-03-26T02:29:56;96847.34;;;7.35;77.06
62025;BME280;47978;49.118;12.146;2023-03-26T02:33:58;96846.94;;;7.41;77.20
62025;BME280;47978;49.118;12.146;2023-03-26T02:37:59;96845.31;;;7.40;77.54
62025;BME280;47978;49.118;12.146;2023-03-26T02:42:00;96840.22;;;7.48;77.53
62025;BME280;47978;49.118;12.146;2023-03-26T02:46:03;96841.28;;;7.52;77.56
62025;BME280;47978;49.118;12.146;2023-03-26T02:50:05;96825.94;;;7.46;77.56
62025;BME280;47978;49.118;12.146;2023-03-26T02:54:07;96824.84;;;7.47;77.43
62025;BME280;47978;49.118;12.146;2023-03-26T02:58:08;96819.97;;;7.57;77.12
62025;BME280;47978;49.118;12.146;2023-03-26T03:02:11;96810.88;;;7.57;77.20
62025;BME280;47978;49.118;12.146;2023-03-26T03:06:13;96816.19;;;7.53;77.40
62025;BME280;47978;49.118;12.146;2023-03-26T03:10:14;96810.59;;;7.58;77.25
62025;BME280;47978;49.118;12.146;2023-03-26T03:14:16;96804.66;;;7.51;77.78
62025;BME280;47978;49.118;12.146;2023-03-26T03:18:19;96802.84;;;7.47;78.02
62025;BME280;47978;49.118;12.146;2023-03-26T03:22:20;96803.94;;;7.46;78.04
62025;BME280;47978;49.118;12.146;2023-03-26T03:26:22;96793.66;;;7.37;78.10
62025;BME280;47978;49.118;12.146;2023-03-26T03:30:24;96799.25;;;7.32;78.21
62025;BME280;47978;49.118;12.146;2023-03-26T03:34:27;96792.94;;;7.32;78.07
62025;BME280;47978;49.118;12.146;2023-03-26T03:38:28;96797.91;;;7.30;78.32
62025;BME280;47978;49.118;12.146;2023-03-26T03:42:29;96793.31;;;7.25;78.53
62025;BME280;47978;49.118;12.146;2023-03-26T03:46:31;96786.72;;;7.26;78.71
62025;BME280;47978;49.118;12.146;2023-03-26T03:50:34;96781.94;;;7.32;78.49
62025;BME280;47978;49.118;12.146;2023-03-26T03:54:36;96783.34;;;7.29;78.69
62025;BME280;47978;49.118;12.146;2023-03-26T03:58:37;96789.06;;;7.33;77.73
62025;BME280;47978;49.118;12.146;2023-03-26T04:02:39;96779.91;;;7.37;77.59
62025;BME280;47978;49.118;12.146;2023-03-26T04:06:42;96773.56;;;7.37;77.12
62025;BME280;47978;49.118;12.146;2023-03-26T04:10:43;96766.25;;;7.32;76.92
62025;BME280;47978;49.118;12.146;2023-03-26T04:14:45;96757.16;;;7.18;77.72
62025;BME280;47978;49.118;12.146;2023-03-26T04:18:46;96756.63;;;7.16;77.66
62025;BME280;47978;49.118;12.146;2023-03-26T04:22:49;96759.44;;;6.97;78.05
62025;BME280;47978;49.118;12.146;2023-03-26T04:26:50;96760.22;;;6.84;79.79
62025;BME280;47978;49.118;12.146;2023-03-26T04:30:52;96760.25;;;6.46;81.33
62025;BME280;47978;49.118;12.146;2023-03-26T04:34:53;96764.41;;;6.24;82.30
62025;BME280;47978;49.118;12.146;2023-03-26T04:38:56;96763.94;;;6.17;82.50
62025;BME280;47978;49.118;12.146;2023-03-26T04:42:58;96764.22;;;5.97;83.45
62025;BME280;47978;49.118;12.146;2023-03-26T04:46:59;96761.94;;;5.80;83.76
62025;BME280;47978;49.118;12.146;2023-03-26T04:51:01;96768.97;;;5.67;83.53
62025;BME280;47978;49.118;12.146;2023-03-26T04:55:04;96761.22;;;5.50;83.62
62025;BME280;47978;49.118;12.146;2023-03-26T04:59:08;96757.94;;;5.48;84.06
62025;BME280;47978;49.118;12.146;2023-03-26T05:03:11;96759.91;;;5.43;83.97
62025;BME280;47978;49.118;12.146;2023-03-26T05:07:13;96749.53;;;5.39;83.78
62025;BME280;47978;49.118;12.146;2023-03-26T05:11:17;96756.34;;;5.18;84.84
62025;BME280;47978;49.118;12.146;2023-03-26T05:15:19;96754.47;;;5.13;85.10
62025;BME280;47978;49.118;12.146;2023-03-26T05:19:20;96752.88;;;5.07;85.70
62025;BME280;47978;49.118;12.146;2023-03-26T05:23:22;96749.22;;;5.17;85.26
62025;BME280;47978;49.118;12.146;2023-03-26T05:27:24;96752.19;;;5.21;85.36
62025;BME280;47978;49.118;12.146;2023-03-26T05:31:26;96759.31;;;5.22;85.42
62025;BME280;47978;49.118;12.146;2023-03-26T05:35:27;96748.00;;;5.28;85.30
62025;BME280;47978;49.118;12.146;2023-03-26T05:39:29;96751.22;;;5.35;85.24
62025;BME280;47978;49.118;12.146;2023-03-26T05:43:31;96740.50;;;5.39;85.24
62025;BME280;47978;49.118;12.146;2023-03-26T05:47:33;96735.47;;;5.46;85.43
62025;BME280;47978;49.118;12.146;2023-03-26T05:51:35;96733.78;;;5.50;86.15
62025;BME280;47978;49.118;12.146;2023-03-26T05:55:36;96727.03;;;5.67;85.74
62025;BME280;47978;49.118;12.146;2023-03-26T05:59:39;96714.13;;;5.67;86.33
62025;BME280;47978;49.118;12.146;2023-03-26T06:03:40;96717.47;;;5.83;85.93
62025;BME280;47978;49.118;12.146;2023-03-26T06:07:42;96719.06;;;6.08;85.31
62025;BME280;47978;49.118;12.146;2023-03-26T06:11:43;96720.72;;;6.28;84.99
62025;BME280;47978;49.118;12.146;2023-03-26T06:15:46;96702.47;;;6.70;84.55
62025;BME280;47978;49.118;12.146;2023-03-26T06:19:47;96695.53;;;7.05;83.74
62025;BME280;47978;49.118;12.146;2023-03-26T06:23:49;96678.34;;;7.27;82.68
62025;BME280;47978;49.118;12.146;2023-03-26T06:27:50;96681.00;;;7.46;81.81
62025;BME280;47978;49.118;12.146;2023-03-26T06:31:53;96688.13;;;7.61;81.77
62025;BME280;47978;49.118;12.146;2023-03-26T06:35:54;96677.19;;;7.83;80.43
62025;BME280;47978;49.118;12.146;2023-03-26T06:39:56;96670.97;;;7.92;80.62
62025;BME280;47978;49.118;12.146;2023-03-26T06:43:57;96661.69;;;7.87;80.73
62025;BME280;47978;49.118;12.146;2023-03-26T06:48:00;96655.97;;;7.98;80.29
62025;BME280;47978;49.118;12.146;2023-03-26T06:52:02;96652.16;;;8.07;79.73
62025;BME280;47978;49.118;12.146;2023-03-26T06:56:03;96649.16;;;8.18;79.20
62025;BME280;47978;49.118;12.146;2023-03-26T07:00:08;96652.72;;;8.18;78.49
62025;BME280;47978;49.118;12.146;2023-03-26T07:04:11;96659.84;;;8.19;78.82
62025;BME280;47978;49.118;12.146;2023-03-26T07:08:12;96638.84;;;8.23;78.82
62025;BME280;47978;49.118;12.146;2023-03-26T07:12:14;96637.56;;;8.07;78.51
62025;BME280;47978;49.118;12.146;2023-03-26T07:16:15;96644.75;;;7.94;79.34
62025;BME280;47978;49.118;12.146;2023-03-26T07:20:18;96639.03;;;7.91;79.78
62025;BME280;47978;49.118;12.146;2023-03-26T07:24:19;96623.28;;;8.05;78.95
62025;BME280;47978;49.118;12.146;2023-03-26T07:28:22;96618.13;;;8.26;79.22
62025;BME280;47978;49.118;12.146;2023-03-26T07:32:27;96612.28;;;8.27;78.36
62025;BME280;47978;49.118;12.146;2023-03-26T07:36:31;96597.53;;;8.23;77.56
62025;BME280;47978;49.118;12.146;2023-03-26T07:40:45;96597.34;;;8.42;77.56
62025;BME280;47978;49.118;12.146;2023-03-26T07:44:50;96593.56;;;8.38;77.44
62025;BME280;47978;49.118;12.146;2023-03-26T07:48:56;96597.31;;;8.65;76.36
62025;BME280;47978;49.118;12.146;2023-03-26T07:52:59;96586.72;;;8.81;75.54
62025;BME280;47978;49.118;12.146;2023-03-26T07:57:01;96596.56;;;8.73;75.23
62025;BME280;47978;49.118;12.146;2023-03-26T08:01:05;96584.81;;;8.59;75.87
62025;BME280;47978;49.118;12.146;2023-03-26T08:05:11;96583.59;;;8.73;74.55
62025;BME280;47978;49.118;12.146;2023-03-26T08:09:16;96573.66;;;8.95;74.21
62025;BME280;47978;49.118;12.146;2023-03-26T08:13:21;96553.53;;;8.94;73.96
62025;BME280;47978;49.118;12.146;2023-03-26T08:17:26;96545.59;;;9.01;74.21
62025;BME280;47978;49.118;12.146;2023-03-26T08:21:33;96543.66;;;9.02;74.65
62025;BME280;47978;49.118;12.146;2023-03-26T08:25:40;96538.28;;;8.88;74.23
62025;BME280;47978;49.118;12.146;2023-03-26T08:29:45;96533.91;;;8.96;74.40
62025;BME280;47978;49.118;12.146;2023-03-26T08:33:50;96524.91;;;8.73;75.20
62025;BME280;47978;49.118;12.146;2023-03-26T08:37:51;96523.53;;;9.01;74.67
62025;BME280;47978;49.118;12.146;2023-03-26T08:46:23;96522.88;;;8.96;75.43
62025;BME280;47978;49.118;12.146;2023-03-26T08:50:42;96526.59;;;8.91;74.87
62025;BME280;47978;49.118;12.146;2023-03-26T08:55:02;96518.88;;;9.11;74.69
62025;BME280;47978;49.118;12.146;2023-03-26T08:59:13;96519.34;;;9.04;74.91
62025;BME280;47978;49.118;12.146;2023-03-26T09:07:49;96494.69;;;9.08;76.67
62025;BME280;47978;49.118;12.146;2023-03-26T09:12:08;96481.41;;;9.18;75.65
62025;BME280;47978;49.118;12.146;2023-03-26T09:16:24;96472.69;;;9.34;76.50
62025;BME280;47978;49.118;12.146;2023-03-26T09:25:03;96444.59;;;9.49;79.36
62025;BME280;47978;49.118;12.146;2023-03-26T09:37:59;96419.28;;;9.47;78.25
62025;BME280;47978;49.118;12.146;2023-03-26T09:42:07;96425.91;;;9.72;79.42
62025;BME280;47978;49.118;12.146;2023-03-26T09:46:12;96413.34;;;10.01;77.74
62025;BME280;47978;49.118;12.146;2023-03-26T09:50:25;96411.56;;;9.87;77.33
62025;BME280;47978;49.118;12.146;2023-03-26T09:58:56;96397.47;;;9.89;77.76
62025;BME280;47978;49.118;12.146;2023-03-26T10:03:05;96397.47;;;9.80;77.73
62025;BME280;47978;49.118;12.146;2023-03-26T10:07:11;96384.53;;;9.55;77.84
62025;BME280;47978;49.118;12.146;2023-03-26T10:11:20;96380.97;;;9.54;77.77
62025;BME280;47978;49.118;12.146;2023-03-26T10:15:28;96372.78;;;9.84;77.81
62025;BME280;47978;49.118;12.146;2023-03-26T10:19:39;96370.38;;;9.74;78.49
62025;BME280;47978;49.118;12.146;2023-03-26T10:23:59;96371.38;;;9.60;79.79
62025;BME280;47978;49.118;12.146;2023-03-26T10:28:19;96374.16;;;9.43;80.30
62025;BME280;47978;49.118;12.146;2023-03-26T10:32:29;96373.19;;;9.56;80.99
62025;BME280;47978;49.118;12.146;2023-03-26T10:36:34;96377.41;;;9.54;80.13
62025;BME280;47978;49.118;12.146;2023-03-26T10:40:36;96373.50;;;9.37;81.06
62025;BME280;47978;49.118;12.146;2023-03-26T10:44:52;96375.13;;;9.47;82.53
62025;BME280;47978;49.118;12.146;2023-03-26T10:49:02;96372.19;;;9.52;82.32
62025;BME280;47978;49.118;12.146;2023-03-26T10:53:09;96370.72;;;9.55;82.21
62025;BME280;47978;49.118;12.146;2023-03-26T10:57:17;96380.97;;;9.54;82.12
62025;BME280;47978;49.118;12.146;2023-03-26T11:01:26;96376.78;;;9.31;83.22
62025;BME280;47978;49.118;12.146;2023-03-26T11:05:41;96367.50;;;9.44;82.72
62025;BME280;47978;49.118;12.146;2023-03-26T11:09:47;96367.50;;;9.44;83.67
62025;BME280;47978;49.118;12.146;2023-03-26T11:13:52;96370.75;;;9.46;84.03
62025;BME280;47978;49.118;12.146;2023-03-26T11:18:00;96374.50;;;9.15;83.81
62025;BME280;47978;49.118;12.146;2023-03-26T11:22:07;96385.38;;;9.12;83.69
62025;BME280;47978;49.118;12.146;2023-03-26T11:26:15;96375.59;;;8.71;84.16
62025;BME280;47978;49.118;12.146;2023-03-26T11:30:20;96380.88;;;8.50;85.51
62025;BME280;47978;49.118;12.146;2023-03-26T11:34:25;96379.34;;;8.75;85.18
62025;BME280;47978;49.118;12.146;2023-03-26T11:38:29;96376.22;;;8.59;85.03
62025;BME280;47978;49.118;12.146;2023-03-26T11:42:32;96379.97;;;8.72;84.78
62025;BME280;47978;49.118;12.146;2023-03-26T11:46:34;96370.69;;;8.59;85.30
62025;BME280;47978;49.118;12.146;2023-03-26T11:50:39;96372.41;;;8.38;83.98
62025;BME280;47978;49.118;12.146;2023-03-26T11:54:42;96373.00;;;8.17;86.37
62025;BME280;47978;49.118;12.146;2023-03-26T11:58:46;96359.66;;;8.10;87.49
62025;BME280;47978;49.118;12.146;2023-03-26T12:02:49;96358.28;;;7.91;87.08
62025;BME280;47978;49.118;12.146;2023-03-26T12:06:56;96361.53;;;7.93;88.25
62025;BME280;47978;49.118;12.146;2023-03-26T12:11:01;96346.22;;;8.09;88.41
62025;BME280;47978;49.118;12.146;2023-03-26T12:15:05;96320.75;;;8.43;85.97
62025;BME280;47978;49.118;12.146;2023-03-26T12:19:17;96299.72;;;8.73;85.48
62025;BME280;47978;49.118;12.146;2023-03-26T12:23:32;96296.78;;;9.05;86.44
62025;BME280;47978;49.118;12.146;2023-03-26T12:27:36;96282.31;;;9.34;84.62
62025;BME280;47978;49.118;12.146;2023-03-26T12:31:50;96279.91;;;9.23;84.78
62025;BME280;47978;49.118;12.146;2023-03-26T12:35:52;96273.44;;;9.19;85.13
62025;BME280;47978;49.118;12.146;2023-03-26T12:40:03;96267.28;;;8.96;84.67
62025;BME280;47978;49.118;12.146;2023-03-26T12:44:20;96268.09;;;9.06;85.21
62025;BME280;47978;49.118;12.146;2023-03-26T12:48:42;96259.81;;;9.14;84.10
62025;BME280;47978;49.118;12.146;2023-03-26T12:52:58;96260.28;;;9.25;85.13
62025;BME280;47978;49.118;12.146;2023-03-26T12:57:05;96248.38;;;9.33;83.77
62025;BME280;47978;49.118;12.146;2023-03-26T13:01:16;96263.03;;;9.25;83.76
62025;BME280;47978;49.118;12.146;2023-03-26T13:05:28;96235.19;;;9.48;82.76
62025;BME280;47978;49.118;12.146;2023-03-26T13:09:38;96259.78;;;9.32;84.65
62025;BME280;47978;49.118;12.146;2023-03-26T13:13:45;96243.13;;;9.11;84.92
62025;BME280;47978;49.118;12.146;2023-03-26T13:17:56;96226.69;;;9.23;84.83
62025;BME280;47978;49.118;12.146;2023-03-26T13:22:04;96223.19;;;9.05;85.66
62025;BME280;47978;49.118;12.146;2023-03-26T13:26:13;96218.81;;;8.78;86.77
62025;BME280;47978;49.118;12.146;2023-03-26T13:30:19;96216.19;;;8.90;86.41
62025;BME280;47978;49.118;12.146;2023-03-26T13:34:25;96206.13;;;9.03;85.65
62025;BME280;47978;49.118;12.146;2023-03-26T13:38:35;96200.09;;;9.18;84.56
62025;BME280;47978;49.118;12.146;2023-03-26T13:42:43;96194.28;;;9.50;84.78
62025;BME280;47978;49.118;12.146;2023-03-26T13:46:49;96189.88;;;9.87;83.08
62025;BME280;47978;49.118;12.146;2023-03-26T13:50:56;96181.97;;;10.36;83.90
62025;BME280;47978;49.118;12.146;2023-03-26T13:55:09;96172.84;;;10.56;81.77
62025;BME280;47978;49.118;12.146;2023-03-26T13:59:18;96167.25;;;10.65;80.86
62025;BME280;47978;49.118;12.146;2023-03-26T14:03:23;96166.38;;;10.73;80.36
62025;BME280;47978;49.118;12.146;2023-03-26T14:07:28;96162.78;;;10.73;80.40
62025;BME280;47978;49.118;12.146;2023-03-26T14:11:34;96170.53;;;10.58;80.78
62025;BME280;47978;49.118;12.146;2023-03-26T14:15:39;96151.78;;;10.64;80.11
62025;BME280;47978;49.118;12.146;2023-03-26T14:19:51;96160.34;;;10.71;81.51
62025;BME280;47978;49.118;12.146;2023-03-26T14:24:21;96146.03;;;10.57;80.25
62025;BME280;47978;49.118;12.146;2023-03-26T14:28:32;96131.47;;;10.81;80.26
62025;BME280;47978;49.118;12.146;2023-03-26T14:32:51;96136.16;;;11.01;78.61
62025;BME280;47978;49.118;12.146;2023-03-26T14:37:04;96133.78;;;10.79;76.99
62025;BME280;47978;49.118;12.146;2023-03-26T14:41:18;96121.56;;;10.80;76.68
62025;BME280;47978;49.118;12.146;2023-03-26T14:50:01;96106.53;;;11.14;72.96
62025;BME280;47978;49.118;12.146;2023-03-26T14:54:12;96101.47;;;11.29;71.63
62025;BME280;47978;49.118;12.146;2023-03-26T14:58:23;96087.63;;;11.41;70.66
62025;BME280;47978;49.118;12.146;2023-03-26T15:02:48;96090.28;;;11.37;71.80
62025;BME280;47978;49.118;12.146;2023-03-26T15:11:16;96074.59;;;11.17;71.98
62025;BME280;47978;49.118;12.146;2023-03-26T15:15:50;96082.91;;;11.05;71.57
62025;BME280;47978;49.118;12.146;2023-03-26T15:20:11;96090.84;;;11.06;72.66
62025;BME280;47978;49.118;12.146;2023-03-26T15:24:28;96095.91;;;11.04;73.42
62025;BME280;47978;49.118;12.146;2023-03-26T15:28:55;96090.97;;;11.10;74.40
62025;BME280;47978;49.118;12.146;2023-03-26T15:41:54;96085.91;;;11.12;76.84
62025;BME280;47978;49.118;12.146;2023-03-26T15:50:15;96079.06;;;10.85;78.65
62025;BME280;47978;49.118;12.146;2023-03-26T15:54:24;96088.75;;;10.45;80.93
62025;BME280;47978;49.118;12.146;2023-03-26T15:58:31;96104.25;;;10.38;81.65
62025;BME280;47978;49.118;12.146;2023-03-26T16:02:38;96101.28;;;10.43;81.67
62025;BME280;47978;49.118;12.146;2023-03-26T16:06:47;96106.94;;;10.46;81.11
62025;BME280;47978;49.118;12.146;2023-03-26T16:10:51;96106.91;;;10.67;81.18
62025;BME280;47978;49.118;12.146;2023-03-26T16:19:34;96102.63;;;10.70;75.56
62025;BME280;47978;49.118;12.146;2023-03-26T16:23:53;96099.50;;;10.59;75.37
62025;BME280;47978;49.118;12.146;2023-03-26T16:28:15;96099.88;;;10.70;74.62
62025;BME280;47978;49.118;12.146;2023-03-26T16:32:21;96094.19;;;10.87;75.14
62025;BME280;47978;49.118;12.146;2023-03-26T16:36:29;96092.06;;;10.84;72.60
62025;BME280;47978;49.118;12.146;2023-03-26T16:40:33;96087.88;;;10.66;73.15
62025;BME280;47978;49.118;12.146;2023-03-26T16:44:37;96083.53;;;10.77;72.09
62025;BME280;47978;49.118;12.146;2023-03-26T16:48:46;96077.50;;;10.63;72.18
62025;BME280;47978;49.118;12.146;2023-03-26T16:52:55;96082.50;;;10.36;74.20
62025;BME280;47978;49.118;12.146;2023-03-26T16:56:59;96072.56;;;10.35;73.98
62025;BME280;47978;49.118;12.146;2023-03-26T17:01:04;96071.56;;;10.19;75.56
62025;BME280;47978;49.118;12.146;2023-03-26T17:05:11;96070.69;;;10.06;76.75
62025;BME280;47978;49.118;12.146;2023-03-26T17:09:19;96063.50;;;9.72;78.55
62025;BME280;47978;49.118;12.146;2023-03-26T17:13:23;96067.56;;;9.44;80.43
62025;BME280;47978;49.118;12.146;2023-03-26T17:17:31;96064.50;;;9.16;82.75
62025;BME280;47978;49.118;12.146;2023-03-26T17:21:40;96067.31;;;8.99;83.52
62025;BME280;47978;49.118;12.146;2023-03-26T17:25:53;96061.69;;;8.87;83.94
62025;BME280;47978;49.118;12.146;2023-03-26T17:30:01;96061.91;;;8.73;84.61
62025;BME280;47978;49.118;12.146;2023-03-26T17:43:00;96083.69;;;8.31;86.22
62025;BME280;47978;49.118;12.146;2023-03-26T17:47:01;96079.34;;;8.13;86.45
62025;BME280;47978;49.118;12.146;2023-03-26T17:51:09;96083.56;;;7.93;87.55
62025;BME280;47978;49.118;12.146;2023-03-26T17:55:14;96071.75;;;7.92;87.04
62025;BME280;47978;49.118;12.146;2023-03-26T17:59:18;96067.03;;;7.66;88.15
62025;BME280;47978;49.118;12.146;2023-03-26T18:03:21;96077.88;;;7.63;88.46
62025;BME280;47978;49.118;12.146;2023-03-26T18:11:59;96069.28;;;7.47;88.27
62025;BME280;47978;49.118;12.146;2023-03-26T18:16:08;96070.69;;;7.27;88.51
62025;BME280;47978;49.118;12.146;2023-03-26T18:20:19;96087.75;;;6.98;89.82
62025;BME280;47978;49.118;12.146;2023-03-26T18:24:21;96069.22;;;7.12;90.40
62025;BME280;47978;49.118;12.146;2023-03-26T18:28:28;96078.72;;;7.06;90.06
62025;BME280;47978;49.118;12.146;2023-03-26T18:32:31;96071.69;;;6.91;91.01
62025;BME280;47978;49.118;12.146;2023-03-26T18:36:33;96083.50;;;6.83;91.71
62025;BME280;47978;49.118;12.146;2023-03-26T18:40:38;96078.97;;;6.87;91.98
62025;BME280;47978;49.118;12.146;2023-03-26T18:44:40;96075.75;;;6.94;91.90
62025;BME280;47978;49.118;12.146;2023-03-26T18:48:43;96072.84;;;6.90;92.44
62025;BME280;47978;49.118;12.146;2023-03-26T18:52:46;96076.91;;;7.02;91.87
62025;BME280;47978;49.118;12.146;2023-03-26T18:56:48;96077.91;;;7.06;91.56
62025;BME280;47978;49.118;12.146;2023-03-26T19:00:50;96072.22;;;7.02;91.87
62025;BME280;47978;49.118;12.146;2023-03-26T19:04:53;96084.34;;;6.92;92.66
62025;BME280;47978;49.118;12.146;2023-03-26T19:08:54;96074.38;;;7.14;92.55
62025;BME280;47978;49.118;12.146;2023-03-26T19:12:57;96069.38;;;7.16;92.36
62025;BME280;47978;49.118;12.146;2023-03-26T19:16:58;96057.72;;;7.19;92.22
62025;BME280;47978;49.118;12.146;2023-03-26T19:21:03;96054.56;;;7.43;91.45
62025;BME280;47978;49.118;12.146;2023-03-26T19:25:05;96065.22;;;7.44;91.90
62025;BME280;47978;49.118;12.146;2023-03-26T19:29:08;96064.09;;;7.46;90.84
62025;BME280;47978;49.118;12.146;2023-03-26T19:33:13;96067.69;;;7.55;90.04
62025;BME280;47978;49.118;12.146;2023-03-26T19:37:17;96065.09;;;7.58;89.67
62025;BME280;47978;49.118;12.146;2023-03-26T19:41:19;96058.13;;;7.78;88.81
62025;BME280;47978;49.118;12.146;2023-03-26T19:45:22;96069.31;;;7.82;88.90
62025;BME280;47978;49.118;12.146;2023-03-26T19:49:25;96066.09;;;7.80;89.13
62025;BME280;47978;49.118;12.146;2023-03-26T19:53:30;96065.75;;;7.73;89.74
62025;BME280;47978;49.118;12.146;2023-03-26T19:57:32;96063.16;;;7.68;90.60
62025;BME280;47978;49.118;12.146;2023-03-26T20:01:34;96060.53;;;7.62;91.49
62025;BME280;47978;49.118;12.146;2023-03-26T20:05:35;96062.19;;;7.55;91.90
62025;BME280;47978;49.118;12.146;2023-03-26T20:09:38;96070.91;;;7.57;92.12
62025;BME280;47978;49.118;12.146;2023-03-26T20:13:39;96068.34;;;7.60;92.30
62025;BME280;47978;49.118;12.146;2023-03-26T20:17:41;96063.94;;;7.59;92.09
62025;BME280;47978;49.118;12.146;2023-03-26T20:21:42;96069.63;;;7.72;92.36
62025;BME280;47978;49.118;12.146;2023-03-26T20:25:46;96081.44;;;7.81;87.50
62025;BME280;47978;49.118;12.146;2023-03-26T20:29:48;96082.59;;;7.80;86.47
62025;BME280;47978;49.118;12.146;2023-03-26T20:33:50;96086.81;;;7.77;86.65
62025;BME280;47978;49.118;12.146;2023-03-26T20:37:51;96091.47;;;7.68;86.90
62025;BME280;47978;49.118;12.146;2023-03-26T20:41:54;96098.91;;;7.76;87.08
62025;BME280;47978;49.118;12.146;2023-03-26T20:45:55;96101.66;;;7.76;88.27
62025;BME280;47978;49.118;12.146;2023-03-26T20:49:57;96106.72;;;7.74;88.16
62025;BME280;47978;49.118;12.146;2023-03-26T20:53:59;96101.66;;;7.76;88.40
62025;BME280;47978;49.118;12.146;2023-03-26T20:58:01;96106.06;;;7.69;87.66
62025;BME280;47978;49.118;12.146;2023-03-26T21:02:04;96106.34;;;7.67;87.39
62025;BME280;47978;49.118;12.146;2023-03-26T21:06:06;96105.41;;;7.63;87.01
62025;BME280;47978;49.118;12.146;2023-03-26T21:10:09;96107.94;;;7.51;86.99
62025;BME280;47978;49.118;12.146;2023-03-26T21:14:14;96108.06;;;7.37;86.52
62025;BME280;47978;49.118;12.146;2023-03-26T21:18:17;96101.75;;;7.36;86.06
62025;BME280;47978;49.118;12.146;2023-03-26T21:22:22;96099.81;;;7.37;85.91
62025;BME280;47978;49.118;12.146;2023-03-26T21:26:27;96105.00;;;7.38;85.36
62025;BME280;47978;49.118;12.146;2023-03-26T21:30:31;96113.09;;;7.35;84.68
62025;BME280;47978;49.118;12.146;2023-03-26T21:34:33;96113.25;;;7.30;84.45
62025;BME280;47978;49.118;12.146;2023-03-26T21:38:35;96120.31;;;7.22;84.56
62025;BME280;47978;49.118;12.146;2023-03-26T21:42:37;96122.09;;;7.18;85.26
62025;BME280;47978;49.118;12.146;2023-03-26T21:46:41;96117.72;;;7.17;84.49
62025;BME280;47978;49.118;12.146;2023-03-26T21:50:43;96121.47;;;7.21;84.87
62025;BME280;47978;49.118;12.146;2023-03-26T21:54:44;96123.53;;;7.15;84.36
62025;BME280;47978;49.118;12.146;2023-03-26T21:58:46;96122.88;;;7.10;84.62
62025;BME280;47978;49.118;12.146;2023-03-26T22:02:56;96131.78;;;7.15;84.97
62025;BME280;47978;49.118;12.146;2023-03-26T22:07:04;96123.53;;;7.15;84.77
62025;BME280;47978;49.118;12.146;2023-03-26T22:11:10;96127.22;;;7.11;84.62
62025;BME280;47978;49.118;12.146;2023-03-26T22:15:11;96131.25;;;7.05;84.48
62025;BME280;47978;49.118;12.146;2023-03-26T22:19:14;96132.25;;;7.09;84.50
62025;BME280;47978;49.118;12.146;2023-03-26T22:23:16;96140.31;;;7.05;84.50
62025;BME280;47978;49.118;12.146;2023-03-26T22:27:17;96140.13;;;7.02;84.34
62025;BME280;47978;49.118;12.146;2023-03-26T22:31:18;96140.97;;;7.11;84.36
62025;BME280;47978;49.118;12.146;2023-03-26T22:35:21;96143.06;;;7.05;84.23
62025;BME280;47978;49.118;12.146;2023-03-26T22:39:23;96140.25;;;6.96;84.33
62025;BME280;47978;49.118;12.146;2023-03-26T22:43:24;96132.06;;;7.05;84.00
62025;BME280;47978;49.118;12.146;2023-03-26T22:47:25;96136.41;;;6.97;84.21